This is the latest recevied weather packets stored in our database for station/object DB5WY-13. If no packets are shown the sender has not sent any weather packets the latest 10 day(s).
| Time | Temp. | Humidity | Pressure | Rain* | Wind** | Luminosity | Snow |
|---|---|---|---|---|---|---|---|
| 1777558219 | 16.67° C | 24% | 1027.7 hPa | 0 mm | - | - | - |
| 1777557619 | 18.89° C | 22% | 1027.8 hPa | 0 mm | - | - | - |
| 1777557019 | 18.89° C | 23% | 1027.9 hPa | 0 mm | - | - | - |
| 1777556419 | 18.33° C | 23% | 1027.9 hPa | 0 mm | - | - | - |
| 1777555819 | 18.33° C | 23% | 1028.3 hPa | 0 mm | - | - | - |
| 1777555219 | 18.33° C | 23% | 1028.3 hPa | 0 mm | - | - | - |
| 1777554619 | 18.33° C | 24% | 1028.4 hPa | 0 mm | - | - | - |
| 1777554019 | 18.33° C | 25% | 1028.4 hPa | 0 mm | - | - | - |
| 1777553419 | 17.78° C | 24% | 1028.4 hPa | 0 mm | - | - | - |
| 1777552819 | 17.78° C | 23% | 1028.5 hPa | 0 mm | - | - | - |
| 1777552219 | 18.33° C | 24% | 1028.5 hPa | 0 mm | - | - | - |
| 1777551619 | 17.22° C | 25% | 1028.7 hPa | 0 mm | - | - | - |
| 1777551019 | 17.22° C | 24% | 1028.7 hPa | 0 mm | - | - | - |
| 1777550419 | 17.22° C | 25% | 1028.8 hPa | 0 mm | - | - | - |
| 1777549819 | 17.78° C | 25% | 1029 hPa | 0 mm | - | - | - |
| 1777549219 | 16.67° C | 25% | 1028.9 hPa | 0 mm | - | - | - |
| 1777548619 | 18.33° C | 23% | 1028.9 hPa | 0 mm | - | - | - |
| 1777548019 | 17.78° C | 24% | 1029 hPa | 0 mm | - | - | - |
| 1777547420 | 17.78° C | 24% | 1029 hPa | 0 mm | - | - | - |
| 1777546820 | 17.78° C | 22% | 1029.3 hPa | 0 mm | - | - | - |
| 1777546220 | 17.78° C | 23% | 1029.2 hPa | 0 mm | - | - | - |
| 1777545620 | 17.22° C | 23% | 1029.2 hPa | 0 mm | - | - | - |
| 1777545020 | 15.56° C | 26% | 1029.1 hPa | 0 mm | - | - | - |
| 1777544420 | 15° C | 26% | 1029.5 hPa | 0 mm | - | - | - |
| 1777543820 | 14.44° C | 28% | 1029.3 hPa | 0 mm | - | - | - |
* Rain latest hour (hover to see other rain measurements)
** Current wind speed in m/s (hover to see current wind gust speed)